sensor_id;sensor_type;location;lat;lon;timestamp;P1;durP1;ratioP1;P2;durP2;ratioP2
49764;SDS011;35657;51.204;-4.130;2022-07-09T00:00:12;2.70;;;1.80;;
49764;SDS011;35657;51.204;-4.130;2022-07-09T00:02:38;4.13;;;2.40;;
49764;SDS011;35657;51.204;-4.130;2022-07-09T00:05:04;4.88;;;2.40;;
49764;SDS011;35657;51.204;-4.130;2022-07-09T00:07:30;3.17;;;2.15;;
49764;SDS011;35657;51.204;-4.130;2022-07-09T00:09:56;4.95;;;1.95;;
49764;SDS011;35657;51.204;-4.130;2022-07-09T00:12:22;4.13;;;2.60;;
49764;SDS011;35657;51.204;-4.130;2022-07-09T00:14:47;2.97;;;2.13;;
49764;SDS011;35657;51.204;-4.130;2022-07-09T00:17:13;3.70;;;2.63;;
49764;SDS011;35657;51.204;-4.130;2022-07-09T00:19:39;5.82;;;2.63;;
49764;SDS011;35657;51.204;-4.130;2022-07-09T00:22:06;4.00;;;2.70;;
49764;SDS011;35657;51.204;-4.130;2022-07-09T00:24:32;3.55;;;2.28;;
49764;SDS011;35657;51.204;-4.130;2022-07-09T00:26:58;5.82;;;2.30;;
49764;SDS011;35657;51.204;-4.130;2022-07-09T00:29:23;4.07;;;1.98;;
49764;SDS011;35657;51.204;-4.130;2022-07-09T00:31:49;5.55;;;2.33;;
49764;SDS011;35657;51.204;-4.130;2022-07-09T00:34:15;4.43;;;2.67;;
49764;SDS011;35657;51.204;-4.130;2022-07-09T00:36:41;3.97;;;2.88;;
49764;SDS011;35657;51.204;-4.130;2022-07-09T00:39:06;4.97;;;3.33;;
49764;SDS011;35657;51.204;-4.130;2022-07-09T00:41:32;4.75;;;2.58;;
49764;SDS011;35657;51.204;-4.130;2022-07-09T00:43:58;3.63;;;2.28;;
49764;SDS011;35657;51.204;-4.130;2022-07-09T00:46:23;4.55;;;2.75;;
49764;SDS011;35657;51.204;-4.130;2022-07-09T00:48:49;7.88;;;3.10;;
49764;SDS011;35657;51.204;-4.130;2022-07-09T00:51:17;7.32;;;2.83;;
49764;SDS011;35657;51.204;-4.130;2022-07-09T00:53:44;6.80;;;2.83;;
49764;SDS011;35657;51.204;-4.130;2022-07-09T00:56:10;3.83;;;2.47;;
49764;SDS011;35657;51.204;-4.130;2022-07-09T00:58:37;6.60;;;3.25;;
49764;SDS011;35657;51.204;-4.130;2022-07-09T01:01:04;3.97;;;2.80;;
49764;SDS011;35657;51.204;-4.130;2022-07-09T01:03:31;8.65;;;3.40;;
49764;SDS011;35657;51.204;-4.130;2022-07-09T01:05:57;5.70;;;3.33;;
49764;SDS011;35657;51.204;-4.130;2022-07-09T01:08:23;4.00;;;2.35;;
49764;SDS011;35657;51.204;-4.130;2022-07-09T01:10:50;5.38;;;2.67;;
49764;SDS011;35657;51.204;-4.130;2022-07-09T01:13:17;5.25;;;2.75;;
49764;SDS011;35657;51.204;-4.130;2022-07-09T01:15:43;7.32;;;4.20;;
49764;SDS011;35657;51.204;-4.130;2022-07-09T01:18:09;5.90;;;2.55;;
49764;SDS011;35657;51.204;-4.130;2022-07-09T01:20:36;3.75;;;2.70;;
49764;SDS011;35657;51.204;-4.130;2022-07-09T01:23:02;4.28;;;3.10;;
49764;SDS011;35657;51.204;-4.130;2022-07-09T01:25:35;7.10;;;2.78;;
49764;SDS011;35657;51.204;-4.130;2022-07-09T01:28:11;5.13;;;2.63;;
49764;SDS011;35657;51.204;-4.130;2022-07-09T01:30:39;6.40;;;2.60;;
49764;SDS011;35657;51.204;-4.130;2022-07-09T01:33:05;3.70;;;3.03;;
49764;SDS011;35657;51.204;-4.130;2022-07-09T01:35:31;4.03;;;2.80;;
49764;SDS011;35657;51.204;-4.130;2022-07-09T01:37:57;7.88;;;3.00;;
49764;SDS011;35657;51.204;-4.130;2022-07-09T01:40:23;5.13;;;2.72;;
49764;SDS011;35657;51.204;-4.130;2022-07-09T01:42:49;6.72;;;3.05;;
49764;SDS011;35657;51.204;-4.130;2022-07-09T01:45:15;4.22;;;2.67;;
49764;SDS011;35657;51.204;-4.130;2022-07-09T01:47:42;5.53;;;2.60;;
49764;SDS011;35657;51.204;-4.130;2022-07-09T01:50:08;3.70;;;2.75;;
49764;SDS011;35657;51.204;-4.130;2022-07-09T01:52:34;6.95;;;2.83;;
49764;SDS011;35657;51.204;-4.130;2022-07-09T01:55:00;6.30;;;2.67;;
49764;SDS011;35657;51.204;-4.130;2022-07-09T01:57:26;9.18;;;2.92;;
49764;SDS011;35657;51.204;-4.130;2022-07-09T01:59:52;7.28;;;2.90;;
49764;SDS011;35657;51.204;-4.130;2022-07-09T02:02:18;4.85;;;2.83;;
49764;SDS011;35657;51.204;-4.130;2022-07-09T02:04:44;7.68;;;2.80;;
49764;SDS011;35657;51.204;-4.130;2022-07-09T02:07:12;11.70;;;2.90;;
49764;SDS011;35657;51.204;-4.130;2022-07-09T02:09:38;6.13;;;2.70;;
49764;SDS011;35657;51.204;-4.130;2022-07-09T02:12:04;3.35;;;2.65;;
49764;SDS011;35657;51.204;-4.130;2022-07-09T02:14:30;6.40;;;3.00;;
49764;SDS011;35657;51.204;-4.130;2022-07-09T02:16:56;4.72;;;2.50;;
49764;SDS011;35657;51.204;-4.130;2022-07-09T02:19:22;4.13;;;2.50;;
49764;SDS011;35657;51.204;-4.130;2022-07-09T02:21:48;6.88;;;2.65;;
49764;SDS011;35657;51.204;-4.130;2022-07-09T02:24:14;4.35;;;2.53;;
49764;SDS011;35657;51.204;-4.130;2022-07-09T02:26:40;4.93;;;2.30;;
49764;SDS011;35657;51.204;-4.130;2022-07-09T02:29:06;3.50;;;2.42;;
49764;SDS011;35657;51.204;-4.130;2022-07-09T02:31:32;4.57;;;2.75;;
49764;SDS011;35657;51.204;-4.130;2022-07-09T02:33:58;6.55;;;2.63;;
49764;SDS011;35657;51.204;-4.130;2022-07-09T02:36:23;3.95;;;2.47;;
49764;SDS011;35657;51.204;-4.130;2022-07-09T02:38:49;4.05;;;2.42;;
49764;SDS011;35657;51.204;-4.130;2022-07-09T02:41:15;5.50;;;2.10;;
49764;SDS011;35657;51.204;-4.130;2022-07-09T02:43:41;4.43;;;2.50;;
49764;SDS011;35657;51.204;-4.130;2022-07-09T02:46:10;3.45;;;2.08;;
49764;SDS011;35657;51.204;-4.130;2022-07-09T02:48:36;4.40;;;2.53;;
49764;SDS011;35657;51.204;-4.130;2022-07-09T02:51:02;3.55;;;2.10;;
49764;SDS011;35657;51.204;-4.130;2022-07-09T02:53:28;8.25;;;2.75;;
49764;SDS011;35657;51.204;-4.130;2022-07-09T02:55:54;3.45;;;2.22;;
49764;SDS011;35657;51.204;-4.130;2022-07-09T02:58:20;4.10;;;2.50;;
49764;SDS011;35657;51.204;-4.130;2022-07-09T03:00:46;4.57;;;2.20;;
49764;SDS011;35657;51.204;-4.130;2022-07-09T03:03:11;5.60;;;2.70;;
49764;SDS011;35657;51.204;-4.130;2022-07-09T03:05:37;2.85;;;1.73;;
49764;SDS011;35657;51.204;-4.130;2022-07-09T03:08:03;4.03;;;2.10;;
49764;SDS011;35657;51.204;-4.130;2022-07-09T03:10:29;3.13;;;2.20;;
49764;SDS011;35657;51.204;-4.130;2022-07-09T03:12:55;3.92;;;2.13;;
49764;SDS011;35657;51.204;-4.130;2022-07-09T03:15:20;4.25;;;2.45;;
49764;SDS011;35657;51.204;-4.130;2022-07-09T03:17:47;5.18;;;2.08;;
49764;SDS011;35657;51.204;-4.130;2022-07-09T03:20:13;3.17;;;2.10;;
49764;SDS011;35657;51.204;-4.130;2022-07-09T03:22:39;5.72;;;2.30;;
49764;SDS011;35657;51.204;-4.130;2022-07-09T03:25:05;5.88;;;2.13;;
49764;SDS011;35657;51.204;-4.130;2022-07-09T03:27:32;6.45;;;2.35;;
49764;SDS011;35657;51.204;-4.130;2022-07-09T03:29:58;4.53;;;2.30;;
49764;SDS011;35657;51.204;-4.130;2022-07-09T03:32:24;4.15;;;2.13;;
49764;SDS011;35657;51.204;-4.130;2022-07-09T03:34:50;6.38;;;2.55;;
49764;SDS011;35657;51.204;-4.130;2022-07-09T03:37:17;4.50;;;2.25;;
49764;SDS011;35657;51.204;-4.130;2022-07-09T03:39:43;6.07;;;2.30;;
49764;SDS011;35657;51.204;-4.130;2022-07-09T03:42:10;2.20;;;1.60;;
49764;SDS011;35657;51.204;-4.130;2022-07-09T03:44:36;3.78;;;1.73;;
49764;SDS011;35657;51.204;-4.130;2022-07-09T03:47:02;6.00;;;2.17;;
49764;SDS011;35657;51.204;-4.130;2022-07-09T03:49:28;3.92;;;2.08;;
49764;SDS011;35657;51.204;-4.130;2022-07-09T03:51:54;2.50;;;2.08;;
49764;SDS011;35657;51.204;-4.130;2022-07-09T03:54:20;4.35;;;2.22;;
49764;SDS011;35657;51.204;-4.130;2022-07-09T03:56:45;3.33;;;2.00;;
49764;SDS011;35657;51.204;-4.130;2022-07-09T03:59:11;3.40;;;2.15;;
49764;SDS011;35657;51.204;-4.130;2022-07-09T04:01:37;3.13;;;2.03;;
49764;SDS011;35657;51.204;-4.130;2022-07-09T04:04:03;2.50;;;1.90;;
49764;SDS011;35657;51.204;-4.130;2022-07-09T04:06:29;2.50;;;1.88;;
49764;SDS011;35657;51.204;-4.130;2022-07-09T04:08:55;2.97;;;1.90;;
49764;SDS011;35657;51.204;-4.130;2022-07-09T04:11:21;3.95;;;1.67;;
49764;SDS011;35657;51.204;-4.130;2022-07-09T04:13:47;2.67;;;1.77;;
49764;SDS011;35657;51.204;-4.130;2022-07-09T04:16:13;3.42;;;2.10;;
49764;SDS011;35657;51.204;-4.130;2022-07-09T04:18:40;3.85;;;2.25;;
49764;SDS011;35657;51.204;-4.130;2022-07-09T04:21:09;6.28;;;2.58;;
49764;SDS011;35657;51.204;-4.130;2022-07-09T04:23:35;3.70;;;1.95;;
49764;SDS011;35657;51.204;-4.130;2022-07-09T04:26:01;3.00;;;2.00;;
49764;SDS011;35657;51.204;-4.130;2022-07-09T04:28:27;5.15;;;2.17;;
49764;SDS011;35657;51.204;-4.130;2022-07-09T04:30:53;6.82;;;1.65;;
49764;SDS011;35657;51.204;-4.130;2022-07-09T04:33:20;4.07;;;1.63;;
49764;SDS011;35657;51.204;-4.130;2022-07-09T04:35:46;3.65;;;2.17;;
49764;SDS011;35657;51.204;-4.130;2022-07-09T04:38:12;4.47;;;2.05;;
49764;SDS011;35657;51.204;-4.130;2022-07-09T04:40:38;6.47;;;2.20;;
49764;SDS011;35657;51.204;-4.130;2022-07-09T04:43:04;2.70;;;1.70;;
49764;SDS011;35657;51.204;-4.130;2022-07-09T04:45:30;3.55;;;1.85;;
49764;SDS011;35657;51.204;-4.130;2022-07-09T04:47:57;2.88;;;1.80;;
49764;SDS011;35657;51.204;-4.130;2022-07-09T04:50:24;2.92;;;1.85;;
49764;SDS011;35657;51.204;-4.130;2022-07-09T04:52:50;3.28;;;1.80;;
49764;SDS011;35657;51.204;-4.130;2022-07-09T04:55:16;4.57;;;1.77;;
49764;SDS011;35657;51.204;-4.130;2022-07-09T04:57:42;4.88;;;1.80;;
49764;SDS011;35657;51.204;-4.130;2022-07-09T05:00:08;2.97;;;1.92;;
49764;SDS011;35657;51.204;-4.130;2022-07-09T05:02:35;3.25;;;2.03;;
49764;SDS011;35657;51.204;-4.130;2022-07-09T05:05:01;2.78;;;1.80;;
49764;SDS011;35657;51.204;-4.130;2022-07-09T05:07:29;2.00;;;1.77;;
49764;SDS011;35657;51.204;-4.130;2022-07-09T05:09:55;2.47;;;1.65;;
49764;SDS011;35657;51.204;-4.130;2022-07-09T05:12:21;3.75;;;1.83;;
49764;SDS011;35657;51.204;-4.130;2022-07-09T05:14:47;2.05;;;1.65;;
49764;SDS011;35657;51.204;-4.130;2022-07-09T05:17:13;7.65;;;2.53;;
49764;SDS011;35657;51.204;-4.130;2022-07-09T05:19:39;3.63;;;2.00;;
49764;SDS011;35657;51.204;-4.130;2022-07-09T05:22:05;2.60;;;1.58;;
49764;SDS011;35657;51.204;-4.130;2022-07-09T05:24:30;5.05;;;1.77;;
49764;SDS011;35657;51.204;-4.130;2022-07-09T05:26:56;2.67;;;2.00;;
49764;SDS011;35657;51.204;-4.130;2022-07-09T05:29:22;4.00;;;1.88;;
49764;SDS011;35657;51.204;-4.130;2022-07-09T05:31:49;2.13;;;1.80;;
49764;SDS011;35657;51.204;-4.130;2022-07-09T05:34:15;3.88;;;2.22;;
49764;SDS011;35657;51.204;-4.130;2022-07-09T05:36:41;4.15;;;1.90;;
49764;SDS011;35657;51.204;-4.130;2022-07-09T05:39:07;3.28;;;2.25;;
49764;SDS011;35657;51.204;-4.130;2022-07-09T05:41:33;3.63;;;2.20;;
49764;SDS011;35657;51.204;-4.130;2022-07-09T05:43:59;5.40;;;2.25;;
49764;SDS011;35657;51.204;-4.130;2022-07-09T05:46:28;3.58;;;2.08;;
49764;SDS011;35657;51.204;-4.130;2022-07-09T05:48:57;4.88;;;2.30;;
49764;SDS011;35657;51.204;-4.130;2022-07-09T05:51:23;2.70;;;2.03;;
49764;SDS011;35657;51.204;-4.130;2022-07-09T05:53:48;3.83;;;1.98;;
49764;SDS011;35657;51.204;-4.130;2022-07-09T05:56:14;2.97;;;2.03;;
49764;SDS011;35657;51.204;-4.130;2022-07-09T05:58:40;3.33;;;1.70;;
49764;SDS011;35657;51.204;-4.130;2022-07-09T06:01:06;3.08;;;2.00;;
49764;SDS011;35657;51.204;-4.130;2022-07-09T06:03:32;4.63;;;1.95;;
49764;SDS011;35657;51.204;-4.130;2022-07-09T06:05:58;5.85;;;2.22;;
49764;SDS011;35657;51.204;-4.130;2022-07-09T06:08:23;3.17;;;1.80;;
49764;SDS011;35657;51.204;-4.130;2022-07-09T06:10:49;3.97;;;2.38;;
49764;SDS011;35657;51.204;-4.130;2022-07-09T06:13:15;3.88;;;2.03;;
49764;SDS011;35657;51.204;-4.130;2022-07-09T06:15:42;2.92;;;1.92;;
49764;SDS011;35657;51.204;-4.130;2022-07-09T06:18:07;2.88;;;2.28;;
49764;SDS011;35657;51.204;-4.130;2022-07-09T06:20:33;3.53;;;2.08;;
49764;SDS011;35657;51.204;-4.130;2022-07-09T06:22:59;3.42;;;2.08;;
49764;SDS011;35657;51.204;-4.130;2022-07-09T06:25:25;5.82;;;2.33;;
49764;SDS011;35657;51.204;-4.130;2022-07-09T06:27:50;3.42;;;2.22;;
49764;SDS011;35657;51.204;-4.130;2022-07-09T06:30:16;3.22;;;2.30;;
49764;SDS011;35657;51.204;-4.130;2022-07-09T06:32:42;2.80;;;2.17;;
49764;SDS011;35657;51.204;-4.130;2022-07-09T06:35:08;3.28;;;2.50;;
49764;SDS011;35657;51.204;-4.130;2022-07-09T06:37:34;5.85;;;2.45;;
49764;SDS011;35657;51.204;-4.130;2022-07-09T06:39:59;4.47;;;2.47;;
49764;SDS011;35657;51.204;-4.130;2022-07-09T06:42:25;5.50;;;2.35;;
49764;SDS011;35657;51.204;-4.130;2022-07-09T06:44:51;4.88;;;2.97;;
49764;SDS011;35657;51.204;-4.130;2022-07-09T06:47:17;3.88;;;2.67;;
49764;SDS011;35657;51.204;-4.130;2022-07-09T06:49:43;4.38;;;2.90;;
49764;SDS011;35657;51.204;-4.130;2022-07-09T06:52:09;3.88;;;2.40;;
49764;SDS011;35657;51.204;-4.130;2022-07-09T06:54:35;4.60;;;2.75;;
49764;SDS011;35657;51.204;-4.130;2022-07-09T06:57:01;3.10;;;2.25;;
49764;SDS011;35657;51.204;-4.130;2022-07-09T06:59:28;5.43;;;3.08;;
49764;SDS011;35657;51.204;-4.130;2022-07-09T07:01:54;5.15;;;2.67;;
49764;SDS011;35657;51.204;-4.130;2022-07-09T07:04:20;3.95;;;2.88;;
49764;SDS011;35657;51.204;-4.130;2022-07-09T07:06:46;3.72;;;2.78;;
49764;SDS011;35657;51.204;-4.130;2022-07-09T07:09:13;5.15;;;2.33;;
49764;SDS011;35657;51.204;-4.130;2022-07-09T07:11:44;5.57;;;2.92;;
49764;SDS011;35657;51.204;-4.130;2022-07-09T07:14:10;4.88;;;3.10;;
49764;SDS011;35657;51.204;-4.130;2022-07-09T07:16:36;5.70;;;3.20;;
49764;SDS011;35657;51.204;-4.130;2022-07-09T07:19:02;4.93;;;2.88;;
49764;SDS011;35657;51.204;-4.130;2022-07-09T07:21:28;4.13;;;2.67;;
49764;SDS011;35657;51.204;-4.130;2022-07-09T07:23:54;3.47;;;2.72;;
49764;SDS011;35657;51.204;-4.130;2022-07-09T07:26:20;3.97;;;2.60;;
49764;SDS011;35657;51.204;-4.130;2022-07-09T07:28:46;6.05;;;3.17;;
49764;SDS011;35657;51.204;-4.130;2022-07-09T07:31:11;7.30;;;3.92;;
49764;SDS011;35657;51.204;-4.130;2022-07-09T07:33:37;3.75;;;3.05;;
49764;SDS011;35657;51.204;-4.130;2022-07-09T07:36:03;7.78;;;3.15;;
49764;SDS011;35657;51.204;-4.130;2022-07-09T07:38:29;6.10;;;3.17;;
49764;SDS011;35657;51.204;-4.130;2022-07-09T07:40:55;5.75;;;2.65;;
49764;SDS011;35657;51.204;-4.130;2022-07-09T07:43:21;4.18;;;3.10;;
49764;SDS011;35657;51.204;-4.130;2022-07-09T07:45:47;4.20;;;2.65;;
49764;SDS011;35657;51.204;-4.130;2022-07-09T07:48:12;8.68;;;3.05;;
49764;SDS011;35657;51.204;-4.130;2022-07-09T07:50:38;4.30;;;3.00;;
49764;SDS011;35657;51.204;-4.130;2022-07-09T07:53:05;3.85;;;3.38;;
49764;SDS011;35657;51.204;-4.130;2022-07-09T07:55:31;3.63;;;2.55;;
49764;SDS011;35657;51.204;-4.130;2022-07-09T07:57:57;5.22;;;2.92;;
49764;SDS011;35657;51.204;-4.130;2022-07-09T08:00:23;3.58;;;2.85;;
49764;SDS011;35657;51.204;-4.130;2022-07-09T08:02:49;4.15;;;2.58;;
49764;SDS011;35657;51.204;-4.130;2022-07-09T08:05:15;3.95;;;2.85;;
49764;SDS011;35657;51.204;-4.130;2022-07-09T08:07:40;4.22;;;3.60;;
49764;SDS011;35657;51.204;-4.130;2022-07-09T08:10:07;4.38;;;3.03;;
49764;SDS011;35657;51.204;-4.130;2022-07-09T08:12:33;4.85;;;2.65;;
49764;SDS011;35657;51.204;-4.130;2022-07-09T08:14:58;8.10;;;2.97;;
49764;SDS011;35657;51.204;-4.130;2022-07-09T08:17:25;3.60;;;2.75;;
49764;SDS011;35657;51.204;-4.130;2022-07-09T08:19:50;4.13;;;3.40;;
49764;SDS011;35657;51.204;-4.130;2022-07-09T08:22:16;3.92;;;3.08;;
49764;SDS011;35657;51.204;-4.130;2022-07-09T08:24:42;4.43;;;2.78;;
49764;SDS011;35657;51.204;-4.130;2022-07-09T08:27:08;3.45;;;2.78;;
49764;SDS011;35657;51.204;-4.130;2022-07-09T08:29:34;3.67;;;2.90;;
49764;SDS011;35657;51.204;-4.130;2022-07-09T08:32:00;4.78;;;2.92;;
49764;SDS011;35657;51.204;-4.130;2022-07-09T08:34:27;3.55;;;3.10;;
49764;SDS011;35657;51.204;-4.130;2022-07-09T08:36:53;2.78;;;2.35;;
49764;SDS011;35657;51.204;-4.130;2022-07-09T08:39:19;4.53;;;3.20;;
49764;SDS011;35657;51.204;-4.130;2022-07-09T08:41:44;5.32;;;2.42;;
49764;SDS011;35657;51.204;-4.130;2022-07-09T08:44:11;4.75;;;2.50;;
49764;SDS011;35657;51.204;-4.130;2022-07-09T08:46:37;7.32;;;3.00;;
49764;SDS011;35657;51.204;-4.130;2022-07-09T08:49:07;4.45;;;2.42;;
49764;SDS011;35657;51.204;-4.130;2022-07-09T08:51:34;4.60;;;2.80;;
49764;SDS011;35657;51.204;-4.130;2022-07-09T08:54:01;5.13;;;2.72;;
49764;SDS011;35657;51.204;-4.130;2022-07-09T08:56:27;4.38;;;2.83;;
49764;SDS011;35657;51.204;-4.130;2022-07-09T08:58:53;5.78;;;2.97;;
49764;SDS011;35657;51.204;-4.130;2022-07-09T09:01:19;3.97;;;2.78;;
49764;SDS011;35657;51.204;-4.130;2022-07-09T09:03:45;2.90;;;2.60;;
49764;SDS011;35657;51.204;-4.130;2022-07-09T09:06:11;3.17;;;2.55;;
49764;SDS011;35657;51.204;-4.130;2022-07-09T09:08:41;4.85;;;2.90;;
49764;SDS011;35657;51.204;-4.130;2022-07-09T09:11:16;3.03;;;2.55;;
49764;SDS011;35657;51.204;-4.130;2022-07-09T09:13:46;5.70;;;2.45;;
49764;SDS011;35657;51.204;-4.130;2022-07-09T09:16:14;3.80;;;2.38;;
49764;SDS011;35657;51.204;-4.130;2022-07-09T09:18:43;5.00;;;2.70;;
49764;SDS011;35657;51.204;-4.130;2022-07-09T09:21:14;3.40;;;2.83;;
49764;SDS011;35657;51.204;-4.130;2022-07-09T09:28:51;5.72;;;2.90;;
49764;SDS011;35657;51.204;-4.130;2022-07-09T09:33:47;3.47;;;2.38;;
49764;SDS011;35657;51.204;-4.130;2022-07-09T09:36:34;4.30;;;2.67;;
49764;SDS011;35657;51.204;-4.130;2022-07-09T09:41:55;3.70;;;2.28;;
49764;SDS011;35657;51.204;-4.130;2022-07-09T09:44:29;5.75;;;2.67;;
49764;SDS011;35657;51.204;-4.130;2022-07-09T09:47:05;3.05;;;2.75;;
49764;SDS011;35657;51.204;-4.130;2022-07-09T09:49:32;5.70;;;2.92;;
49764;SDS011;35657;51.204;-4.130;2022-07-09T09:52:03;3.80;;;2.53;;
49764;SDS011;35657;51.204;-4.130;2022-07-09T09:54:31;5.43;;;2.70;;
49764;SDS011;35657;51.204;-4.130;2022-07-09T09:56:58;2.97;;;1.98;;
49764;SDS011;35657;51.204;-4.130;2022-07-09T09:59:24;5.78;;;2.70;;
49764;SDS011;35657;51.204;-4.130;2022-07-09T10:01:50;4.18;;;2.60;;
49764;SDS011;35657;51.204;-4.130;2022-07-09T10:04:16;6.07;;;2.50;;
49764;SDS011;35657;51.204;-4.130;2022-07-09T10:06:43;3.00;;;2.17;;
49764;SDS011;35657;51.204;-4.130;2022-07-09T10:09:13;2.63;;;2.42;;
49764;SDS011;35657;51.204;-4.130;2022-07-09T10:11:44;5.82;;;2.70;;
49764;SDS011;35657;51.204;-4.130;2022-07-09T10:14:17;4.13;;;2.40;;
49764;SDS011;35657;51.204;-4.130;2022-07-09T10:17:09;4.25;;;2.10;;
49764;SDS011;35657;51.204;-4.130;2022-07-09T10:19:36;2.60;;;2.00;;
49764;SDS011;35657;51.204;-4.130;2022-07-09T10:22:02;2.72;;;1.88;;
49764;SDS011;35657;51.204;-4.130;2022-07-09T10:24:32;3.80;;;2.30;;
49764;SDS011;35657;51.204;-4.130;2022-07-09T10:27:03;3.80;;;1.80;;
49764;SDS011;35657;51.204;-4.130;2022-07-09T10:29:34;2.75;;;1.65;;
49764;SDS011;35657;51.204;-4.130;2022-07-09T10:32:02;3.67;;;2.20;;
49764;SDS011;35657;51.204;-4.130;2022-07-09T10:37:15;3.05;;;2.10;;
49764;SDS011;35657;51.204;-4.130;2022-07-09T10:39:51;2.90;;;2.60;;
49764;SDS011;35657;51.204;-4.130;2022-07-09T10:42:19;4.00;;;2.65;;
49764;SDS011;35657;51.204;-4.130;2022-07-09T10:44:46;3.75;;;2.50;;
49764;SDS011;35657;51.204;-4.130;2022-07-09T10:47:14;2.80;;;2.05;;
49764;SDS011;35657;51.204;-4.130;2022-07-09T10:49:41;4.28;;;2.65;;
49764;SDS011;35657;51.204;-4.130;2022-07-09T10:52:07;4.07;;;2.47;;
49764;SDS011;35657;51.204;-4.130;2022-07-09T10:54:33;4.18;;;2.65;;
49764;SDS011;35657;51.204;-4.130;2022-07-09T10:57:09;4.97;;;2.53;;
49764;SDS011;35657;51.204;-4.130;2022-07-09T10:59:35;2.30;;;1.98;;
49764;SDS011;35657;51.204;-4.130;2022-07-09T11:02:02;3.88;;;2.08;;
49764;SDS011;35657;51.204;-4.130;2022-07-09T11:04:29;3.35;;;2.05;;
49764;SDS011;35657;51.204;-4.130;2022-07-09T11:06:56;1.80;;;1.50;;
49764;SDS011;35657;51.204;-4.130;2022-07-09T11:09:22;2.67;;;1.50;;
49764;SDS011;35657;51.204;-4.130;2022-07-09T11:11:55;2.60;;;1.90;;
49764;SDS011;35657;51.204;-4.130;2022-07-09T11:14:21;2.20;;;1.58;;
49764;SDS011;35657;51.204;-4.130;2022-07-09T11:16:54;2.03;;;1.58;;
49764;SDS011;35657;51.204;-4.130;2022-07-09T11:19:21;2.97;;;1.70;;
49764;SDS011;35657;51.204;-4.130;2022-07-09T11:21:48;2.35;;;1.77;;
49764;SDS011;35657;51.204;-4.130;2022-07-09T11:24:20;2.38;;;1.55;;
49764;SDS011;35657;51.204;-4.130;2022-07-09T11:26:49;2.78;;;1.90;;
49764;SDS011;35657;51.204;-4.130;2022-07-09T11:29:18;3.10;;;1.70;;
49764;SDS011;35657;51.204;-4.130;2022-07-09T11:31:47;3.95;;;1.60;;
49764;SDS011;35657;51.204;-4.130;2022-07-09T11:34:14;3.08;;;2.05;;
49764;SDS011;35657;51.204;-4.130;2022-07-09T11:36:45;2.35;;;1.98;;
49764;SDS011;35657;51.204;-4.130;2022-07-09T11:39:28;4.00;;;2.10;;
49764;SDS011;35657;51.204;-4.130;2022-07-09T11:41:56;2.00;;;1.45;;
49764;SDS011;35657;51.204;-4.130;2022-07-09T11:44:23;2.35;;;1.50;;
49764;SDS011;35657;51.204;-4.130;2022-07-09T11:52:00;2.20;;;1.17;;
49764;SDS011;35657;51.204;-4.130;2022-07-09T11:54:27;2.63;;;1.35;;
49764;SDS011;35657;51.204;-4.130;2022-07-09T11:56:53;1.98;;;1.17;;
49764;SDS011;35657;51.204;-4.130;2022-07-09T11:59:29;3.70;;;1.48;;
49764;SDS011;35657;51.204;-4.130;2022-07-09T12:01:59;1.20;;;1.00;;
49764;SDS011;35657;51.204;-4.130;2022-07-09T12:04:30;2.15;;;1.20;;
49764;SDS011;35657;51.204;-4.130;2022-07-09T12:06:56;1.67;;;0.82;;
49764;SDS011;35657;51.204;-4.130;2022-07-09T12:09:29;1.63;;;0.65;;
49764;SDS011;35657;51.204;-4.130;2022-07-09T12:11:57;0.88;;;0.65;;
49764;SDS011;35657;51.204;-4.130;2022-07-09T12:14:23;4.55;;;0.90;;
49764;SDS011;35657;51.204;-4.130;2022-07-09T12:16:49;1.58;;;0.60;;
49764;SDS011;35657;51.204;-4.130;2022-07-09T12:19:15;1.02;;;0.60;;
49764;SDS011;35657;51.204;-4.130;2022-07-09T12:21:40;0.80;;;0.60;;
49764;SDS011;35657;51.204;-4.130;2022-07-09T12:24:06;1.77;;;0.50;;
49764;SDS011;35657;51.204;-4.130;2022-07-09T12:26:32;0.65;;;0.47;;
49764;SDS011;35657;51.204;-4.130;2022-07-09T12:28:58;1.52;;;0.50;;
49764;SDS011;35657;51.204;-4.130;2022-07-09T12:31:24;0.82;;;0.50;;
49764;SDS011;35657;51.204;-4.130;2022-07-09T12:33:50;0.80;;;0.40;;
49764;SDS011;35657;51.204;-4.130;2022-07-09T12:36:16;0.80;;;0.52;;
49764;SDS011;35657;51.204;-4.130;2022-07-09T12:38:42;1.23;;;0.47;;
49764;SDS011;35657;51.204;-4.130;2022-07-09T12:41:08;1.00;;;0.60;;
49764;SDS011;35657;51.204;-4.130;2022-07-09T12:43:34;0.35;;;0.35;;
49764;SDS011;35657;51.204;-4.130;2022-07-09T12:46:01;0.80;;;0.40;;
49764;SDS011;35657;51.204;-4.130;2022-07-09T12:48:27;1.85;;;0.43;;
49764;SDS011;35657;51.204;-4.130;2022-07-09T12:50:53;1.17;;;0.50;;
49764;SDS011;35657;51.204;-4.130;2022-07-09T12:53:19;0.35;;;0.30;;
49764;SDS011;35657;51.204;-4.130;2022-07-09T12:55:44;1.58;;;0.30;;
49764;SDS011;35657;51.204;-4.130;2022-07-09T12:58:11;0.70;;;0.40;;
49764;SDS011;35657;51.204;-4.130;2022-07-09T13:00:37;0.30;;;0.30;;
49764;SDS011;35657;51.204;-4.130;2022-07-09T13:03:03;1.40;;;0.55;;
49764;SDS011;35657;51.204;-4.130;2022-07-09T13:05:28;0.40;;;0.32;;
49764;SDS011;35657;51.204;-4.130;2022-07-09T13:07:54;2.28;;;0.50;;
49764;SDS011;35657;51.204;-4.130;2022-07-09T13:10:20;0.65;;;0.40;;
49764;SDS011;35657;51.204;-4.130;2022-07-09T13:12:48;1.05;;;0.30;;
49764;SDS011;35657;51.204;-4.130;2022-07-09T13:15:14;1.48;;;0.30;;
49764;SDS011;35657;51.204;-4.130;2022-07-09T13:17:46;1.80;;;0.65;;
49764;SDS011;35657;51.204;-4.130;2022-07-09T13:20:12;0.55;;;0.40;;
49764;SDS011;35657;51.204;-4.130;2022-07-09T13:22:38;0.90;;;0.52;;
49764;SDS011;35657;51.204;-4.130;2022-07-09T13:25:04;1.23;;;0.50;;
49764;SDS011;35657;51.204;-4.130;2022-07-09T13:27:30;1.75;;;0.63;;
49764;SDS011;35657;51.204;-4.130;2022-07-09T13:29:56;0.70;;;0.40;;
49764;SDS011;35657;51.204;-4.130;2022-07-09T13:32:22;0.93;;;0.30;;
49764;SDS011;35657;51.204;-4.130;2022-07-09T13:34:49;0.65;;;0.30;;
49764;SDS011;35657;51.204;-4.130;2022-07-09T13:37:15;0.63;;;0.45;;
49764;SDS011;35657;51.204;-4.130;2022-07-09T13:39:41;2.30;;;0.47;;
49764;SDS011;35657;51.204;-4.130;2022-07-09T13:42:07;0.40;;;0.30;;
49764;SDS011;35657;51.204;-4.130;2022-07-09T13:44:33;0.28;;;0.25;;
49764;SDS011;35657;51.204;-4.130;2022-07-09T13:46:59;0.98;;;0.30;;
49764;SDS011;35657;51.204;-4.130;2022-07-09T13:49:24;0.95;;;0.55;;
49764;SDS011;35657;51.204;-4.130;2022-07-09T13:51:50;0.35;;;0.30;;
49764;SDS011;35657;51.204;-4.130;2022-07-09T13:54:16;0.90;;;0.32;;
49764;SDS011;35657;51.204;-4.130;2022-07-09T13:56:42;0.98;;;0.30;;
49764;SDS011;35657;51.204;-4.130;2022-07-09T13:59:08;1.23;;;0.30;;
49764;SDS011;35657;51.204;-4.130;2022-07-09T14:01:34;0.82;;;0.22;;
49764;SDS011;35657;51.204;-4.130;2022-07-09T14:03:59;0.73;;;0.45;;
49764;SDS011;35657;51.204;-4.130;2022-07-09T14:06:25;0.77;;;0.40;;
49764;SDS011;35657;51.204;-4.130;2022-07-09T14:08:51;1.02;;;0.30;;
49764;SDS011;35657;51.204;-4.130;2022-07-09T14:11:17;0.50;;;0.30;;
49764;SDS011;35657;51.204;-4.130;2022-07-09T14:13:43;0.20;;;0.20;;
49764;SDS011;35657;51.204;-4.130;2022-07-09T14:16:10;0.50;;;0.32;;
49764;SDS011;35657;51.204;-4.130;2022-07-09T14:18:35;0.77;;;0.40;;
49764;SDS011;35657;51.204;-4.130;2022-07-09T14:21:01;0.25;;;0.25;;
49764;SDS011;35657;51.204;-4.130;2022-07-09T14:23:27;0.30;;;0.28;;
49764;SDS011;35657;51.204;-4.130;2022-07-09T14:25:53;0.40;;;0.30;;
49764;SDS011;35657;51.204;-4.130;2022-07-09T14:28:19;0.45;;;0.40;;
49764;SDS011;35657;51.204;-4.130;2022-07-09T14:30:44;1.77;;;0.43;;
49764;SDS011;35657;51.204;-4.130;2022-07-09T14:33:10;0.32;;;0.20;;
49764;SDS011;35657;51.204;-4.130;2022-07-09T14:35:36;0.50;;;0.32;;
49764;SDS011;35657;51.204;-4.130;2022-07-09T14:38:02;0.63;;;0.30;;
49764;SDS011;35657;51.204;-4.130;2022-07-09T14:40:28;1.98;;;0.32;;
49764;SDS011;35657;51.204;-4.130;2022-07-09T14:42:54;1.30;;;0.30;;
49764;SDS011;35657;51.204;-4.130;2022-07-09T14:45:20;0.50;;;0.40;;
49764;SDS011;35657;51.204;-4.130;2022-07-09T14:47:51;0.60;;;0.40;;